createdAt,value
2023-01-10T06:00:40.308Z,8.57
2023-01-10T06:03:07.079Z,8.80
2023-01-10T06:05:34.046Z,8.98
2023-01-10T06:08:00.642Z,8.48
2023-01-10T06:10:27.841Z,10.00
2023-01-10T06:12:54.848Z,9.00
2023-01-10T06:15:21.763Z,9.50
2023-01-10T06:17:48.940Z,8.88
2023-01-10T06:20:15.779Z,8.23
2023-01-10T06:22:43.759Z,10.07
2023-01-10T06:25:11.809Z,10.13
2023-01-10T06:27:43.698Z,8.82
2023-01-10T06:30:13.353Z,9.85
2023-01-10T06:32:41.337Z,8.98
2023-01-10T06:35:08.805Z,8.85
2023-01-10T06:37:36.147Z,9.40
2023-01-10T06:40:03.512Z,9.02
2023-01-10T06:42:30.690Z,9.88
2023-01-10T06:44:57.283Z,10.00
2023-01-10T06:47:24.189Z,8.68
2023-01-10T06:49:50.810Z,9.93
2023-01-10T06:52:18.046Z,8.98
2023-01-10T06:54:44.690Z,10.20
2023-01-10T06:57:11.976Z,9.55
2023-01-10T06:59:38.547Z,8.00
2023-01-10T07:02:05.866Z,10.68
2023-01-10T07:04:32.514Z,9.55
2023-01-10T07:07:01.025Z,9.80
2023-01-10T07:09:28.541Z,9.52
2023-01-10T07:11:55.914Z,10.32
2023-01-10T07:14:22.580Z,10.88
2023-01-10T07:16:49.895Z,10.35
2023-01-10T07:19:18.120Z,9.73
2023-01-10T07:21:45.286Z,10.07
2023-01-10T07:24:11.919Z,10.35
2023-01-10T07:26:39.121Z,9.52
2023-01-10T07:29:05.845Z,11.68
2023-01-10T07:31:33.223Z,10.82
2023-01-10T07:33:59.865Z,11.15
2023-01-10T07:36:27.069Z,10.23
2023-01-10T07:38:53.693Z,10.85
2023-01-10T07:41:20.886Z,10.35
2023-01-10T07:43:48.771Z,11.73
2023-01-10T07:46:16.252Z,10.80
2023-01-10T07:48:43.698Z,9.27
2023-01-10T07:51:10.930Z,10.18
2023-01-10T07:53:38.420Z,9.98
2023-01-10T07:56:06.038Z,11.20
2023-01-10T07:58:33.179Z,10.40
2023-01-10T08:01:02.047Z,9.30
2023-01-10T08:03:33.659Z,9.52
2023-01-10T08:06:02.257Z,9.05
2023-01-10T08:08:29.916Z,10.90
2023-01-10T08:10:57.303Z,9.25
2023-01-10T08:13:24.441Z,10.25
2023-01-10T08:15:52.314Z,8.70
2023-01-10T08:18:21.072Z,9.52
2023-01-10T08:20:52.730Z,9.95
2023-01-10T08:23:21.373Z,9.50
2023-01-10T08:25:48.476Z,8.52
2023-01-10T08:28:15.209Z,9.07
2023-01-10T08:30:42.397Z,8.10
2023-01-10T08:33:10.984Z,7.50
2023-01-10T08:35:42.531Z,8.55
2023-01-10T08:38:10.950Z,8.48
2023-01-10T08:40:37.604Z,8.88
2023-01-10T08:43:07.778Z,7.95
2023-01-10T08:45:35.493Z,7.90
2023-01-10T08:48:02.508Z,8.88
2023-01-10T08:50:29.975Z,8.27
2023-01-10T08:53:00.584Z,8.73
2023-01-10T08:55:28.689Z,8.32
2023-01-10T08:57:55.562Z,9.98
2023-01-10T09:00:22.655Z,11.20
2023-01-10T09:02:49.588Z,9.90
2023-01-10T09:05:27.193Z,8.38
2023-01-10T09:08:02.997Z,8.32
2023-01-10T09:10:30.113Z,8.88
2023-01-10T09:13:02.069Z,7.85
2023-01-10T09:15:34.094Z,8.40
2023-01-10T09:18:05.199Z,8.05
2023-01-10T09:20:34.243Z,8.80
2023-01-10T09:23:06.901Z,9.90
2023-01-10T09:25:34.053Z,8.50
2023-01-10T09:28:03.038Z,9.02
2023-01-10T09:30:30.292Z,8.60
2023-01-10T09:32:58.583Z,9.65
2023-01-10T09:35:26.688Z,8.52
2023-01-10T09:37:58.652Z,8.30
2023-01-10T09:40:44.155Z,8.32
2023-01-10T09:43:26.679Z,9.52
2023-01-10T09:46:02.606Z,8.07
2023-01-10T09:48:52.257Z,8.95
2023-01-10T09:51:50.978Z,10.07
2023-01-10T09:54:28.459Z,8.98
2023-01-10T09:56:56.291Z,9.80
2023-01-10T09:59:26.559Z,10.75
2023-01-10T10:02:00.275Z,9.80
2023-01-10T10:04:30.488Z,12.02
2023-01-10T10:06:57.092Z,9.15
2023-01-10T10:09:28.049Z,13.57
2023-01-10T10:12:14.838Z,13.23
2023-01-10T10:15:00.688Z,12.02
2023-01-10T10:17:37.424Z,12.30
2023-01-10T10:20:25.186Z,10.52
2023-01-10T10:22:52.324Z,11.27
2023-01-10T10:25:52.314Z,10.57
2023-01-10T10:29:03.843Z,9.40
2023-01-10T10:31:56.445Z,11.70
2023-01-10T10:34:28.547Z,9.40
2023-01-10T10:37:01.095Z,10.15
2023-01-10T10:39:39.092Z,9.65
2023-01-10T10:42:13.536Z,10.25
2023-01-10T10:44:47.489Z,9.20
2023-01-10T10:47:19.444Z,10.18
2023-01-10T10:50:18.964Z,10.30
2023-01-10T10:52:47.064Z,10.20
2023-01-10T10:55:19.133Z,9.57
2023-01-10T10:57:59.598Z,9.73
2023-01-10T11:00:28.665Z,10.43
2023-01-10T11:03:16.852Z,10.68
2023-01-10T11:05:46.819Z,9.77
2023-01-10T11:08:17.384Z,10.48
2023-01-10T11:10:56.499Z,10.27
2023-01-10T11:13:33.856Z,10.57
2023-01-10T11:16:05.832Z,10.85
2023-01-10T11:18:34.045Z,9.90
2023-01-10T11:21:05.385Z,11.13
2023-01-10T11:23:56.873Z,9.05
2023-01-10T11:26:37.440Z,8.85
2023-01-10T11:29:36.857Z,9.07
2023-01-10T11:32:14.946Z,9.13
2023-01-10T11:34:49.113Z,8.73
2023-01-10T11:37:26.817Z,8.10
2023-01-10T11:40:20.402Z,9.63
2023-01-10T11:42:47.908Z,8.48
2023-01-10T11:45:17.201Z,10.07
2023-01-10T11:47:49.185Z,8.75
2023-01-10T11:50:32.289Z,8.80
2023-01-10T11:52:59.741Z,8.32
2023-01-10T11:55:29.804Z,8.82
2023-01-10T11:58:13.907Z,9.00
2023-01-10T12:00:48.475Z,8.13
2023-01-10T12:03:21.391Z,7.78
2023-01-10T12:06:15.764Z,6.80
2023-01-10T12:08:43.080Z,7.80
2023-01-10T12:11:27.627Z,8.75
2023-01-10T12:13:58.184Z,8.85
2023-01-10T12:16:32.122Z,9.18
2023-01-10T12:19:02.621Z,8.32
2023-01-10T12:21:43.715Z,7.93
2023-01-10T12:24:25.208Z,7.53
2023-01-10T12:26:53.940Z,6.93
2023-01-10T12:29:33.193Z,5.80
2023-01-10T12:32:01.119Z,7.35
2023-01-10T12:34:40.720Z,8.48
2023-01-10T12:37:27.857Z,7.03
2023-01-10T12:40:01.131Z,4.97
2023-01-10T12:43:03.358Z,6.10
2023-01-10T12:45:39.228Z,6.38
2023-01-10T12:48:44.520Z,8.20
2023-01-10T12:51:18.597Z,7.25
2023-01-10T12:53:52.400Z,8.00
2023-01-10T12:56:20.216Z,7.97
2023-01-10T12:58:51.496Z,6.95
2023-01-10T13:01:40.354Z,7.18
2023-01-10T13:04:12.920Z,7.22
2023-01-10T13:06:42.293Z,7.88
2023-01-10T13:12:02.462Z,8.27
2023-01-10T13:14:37.088Z,6.78
2023-01-10T13:17:27.861Z,7.57
2023-01-10T13:20:16.796Z,7.38
2023-01-10T13:22:48.425Z,5.70
2023-01-10T13:25:27.772Z,6.97
2023-01-10T13:28:05.906Z,5.57
2023-01-10T13:30:37.422Z,6.25
2023-01-10T13:33:20.017Z,11.40
2023-01-10T13:35:49.057Z,5.70
2023-01-10T13:38:26.680Z,5.63
2023-01-10T13:41:29.923Z,6.03
2023-01-10T13:44:14.909Z,5.40
2023-01-10T13:46:46.488Z,5.28
2023-01-10T13:49:13.627Z,5.65
2023-01-10T13:52:18.847Z,5.43
2023-01-10T13:55:04.074Z,5.40
2023-01-10T13:57:50.432Z,5.18
2023-01-10T14:00:45.055Z,4.35
2023-01-10T14:03:36.619Z,4.13
2023-01-10T14:06:05.713Z,4.43
2023-01-10T14:08:33.524Z,4.45
2023-01-10T14:11:12.756Z,4.80
2023-01-10T14:13:52.718Z,4.57
2023-01-10T14:18:58.366Z,4.32
2023-01-10T14:21:27.378Z,4.80
2023-01-10T14:23:56.958Z,4.72
2023-01-10T14:26:37.952Z,4.25
2023-01-10T14:29:14.043Z,4.97
2023-01-10T14:31:47.129Z,4.65
2023-01-10T14:34:28.947Z,4.13
2023-01-10T14:37:01.788Z,4.25
2023-01-10T14:39:30.484Z,3.85
2023-01-10T14:42:05.204Z,3.38
2023-01-10T14:44:35.108Z,3.88
2023-01-10T14:47:04.560Z,3.50
2023-01-10T14:49:36.201Z,3.25
2023-01-10T14:52:24.116Z,3.22
2023-01-10T14:55:02.793Z,3.67
2023-01-10T14:57:29.748Z,3.45
2023-01-10T15:00:12.480Z,3.38
2023-01-10T15:02:48.295Z,3.33
2023-01-10T15:05:19.565Z,4.00
2023-01-10T15:07:47.363Z,4.25
2023-01-10T15:10:24.844Z,3.20
2023-01-10T15:12:54.980Z,4.47
2023-01-10T15:15:34.284Z,4.50
2023-01-10T15:18:06.816Z,4.28
2023-01-10T15:20:34.154Z,3.70
2023-01-10T15:23:02.241Z,3.88
2023-01-10T15:25:38.637Z,3.95
2023-01-10T15:28:15.109Z,3.92
2023-01-10T15:30:42.561Z,4.63
2023-01-10T15:33:16.464Z,4.18
2023-01-10T15:35:43.689Z,3.28
2023-01-10T15:38:16.772Z,4.97
2023-01-10T15:40:44.164Z,4.38
2023-01-10T15:43:17.110Z,3.15
2023-01-10T15:45:46.065Z,5.03
2023-01-10T15:48:36.023Z,3.95
2023-01-10T15:51:06.526Z,3.63
2023-01-10T15:53:53.931Z,3.70
2023-01-10T15:56:25.531Z,3.25
2023-01-10T15:58:52.895Z,3.97
2023-01-10T16:01:19.942Z,3.97
2023-01-10T16:03:53.732Z,4.28
2023-01-10T16:06:27.575Z,3.60
2023-01-10T16:08:57.181Z,3.35
2023-01-10T16:11:56.608Z,4.00
2023-01-10T16:16:50.501Z,4.45
2023-01-10T16:19:17.631Z,3.25
2023-01-10T16:21:48.417Z,3.55
2023-01-10T16:24:27.256Z,3.55
2023-01-10T16:26:55.620Z,3.75
2023-01-10T16:29:23.242Z,3.22
2023-01-10T16:31:52.222Z,3.35
2023-01-10T16:34:19.752Z,3.47
2023-01-10T16:36:46.441Z,4.00
2023-01-10T16:39:22.049Z,3.90
2023-01-10T16:42:07.676Z,3.35
2023-01-10T16:44:35.232Z,3.38
2023-01-10T16:47:06.356Z,3.53
2023-01-10T16:49:34.227Z,4.47
2023-01-10T16:52:00.887Z,3.58
2023-01-10T16:54:28.609Z,4.25
2023-01-10T16:56:55.819Z,4.07
2023-01-10T16:59:23.042Z,2.85
2023-01-10T17:01:58.231Z,3.25
2023-01-10T17:04:30.182Z,3.42
2023-01-10T17:06:57.149Z,4.05
2023-01-10T17:09:27.188Z,3.70
2023-01-10T17:16:50.444Z,2.88
2023-01-10T17:19:17.760Z,4.32
2023-01-10T17:21:44.347Z,3.33
2023-01-10T17:24:12.033Z,3.40
2023-01-10T17:26:38.664Z,3.60
2023-01-10T17:29:05.835Z,3.08
2023-01-10T17:31:32.444Z,3.45
2023-01-10T17:33:59.710Z,2.90
2023-01-10T17:36:30.237Z,2.72
2023-01-10T17:38:57.519Z,3.83
2023-01-10T17:41:24.366Z,3.83
2023-01-10T17:43:51.637Z,3.25
2023-01-10T17:46:18.256Z,3.17
2023-01-10T17:48:45.453Z,3.67
2023-01-10T17:51:13.184Z,3.05
2023-01-10T17:53:41.164Z,4.43
2023-01-10T17:56:08.299Z,3.17
2023-01-10T17:58:35.917Z,2.65
2023-01-10T18:01:02.817Z,3.55
2023-01-10T18:03:30.056Z,4.18
2023-01-10T18:05:58.749Z,3.33
2023-01-10T18:08:26.620Z,3.08
2023-01-10T18:11:00.021Z,3.67
2023-01-10T18:13:33.620Z,3.50
2023-01-10T18:16:01.223Z,3.97
2023-01-10T18:18:28.708Z,3.40
2023-01-10T18:20:58.106Z,3.30
2023-01-10T18:26:12.991Z,3.30
2023-01-10T18:28:43.013Z,4.65
2023-01-10T18:31:17.996Z,5.10
2023-01-10T18:33:46.950Z,3.78
2023-01-10T18:36:19.486Z,3.78
2023-01-10T18:38:48.083Z,2.83
2023-01-10T18:41:15.726Z,3.78
2023-01-10T18:43:42.589Z,3.67
2023-01-10T18:46:18.785Z,3.95
2023-01-10T18:48:46.907Z,3.67
2023-01-10T18:51:14.662Z,4.18
2023-01-10T18:53:42.897Z,3.38
2023-01-10T18:56:10.734Z,3.53
2023-01-10T18:58:41.066Z,4.60
2023-01-10T19:01:13.842Z,4.15
2023-01-10T19:03:41.930Z,3.90
2023-01-10T19:06:14.361Z,4.75
2023-01-10T19:08:42.864Z,3.72
2023-01-10T19:11:14.483Z,3.10
2023-01-10T19:13:43.554Z,2.50
2023-01-10T19:16:25.188Z,2.78
2023-01-10T19:19:01.280Z,4.00
2023-01-10T19:21:30.350Z,3.55
2023-01-10T19:24:02.132Z,3.28
2023-01-10T19:26:29.085Z,3.72
2023-01-10T19:28:55.707Z,3.65
2023-01-10T19:31:25.903Z,3.67
2023-01-10T19:33:53.620Z,3.70
2023-01-10T19:36:22.411Z,3.10
2023-01-10T19:38:57.110Z,3.40
2023-01-10T19:41:25.235Z,3.40
2023-01-10T19:43:57.406Z,5.05
2023-01-10T19:46:24.489Z,3.72
2023-01-10T19:48:52.091Z,3.55
2023-01-10T19:51:18.715Z,3.95
2023-01-10T19:53:46.903Z,3.78
2023-01-10T19:56:22.922Z,4.50
2023-01-10T19:58:51.550Z,3.97
2023-01-10T20:01:21.284Z,2.90
2023-01-10T20:03:49.161Z,3.58
2023-01-10T20:06:20.797Z,4.22
2023-01-10T20:08:49.018Z,3.38
2023-01-10T20:11:17.233Z,3.75
2023-01-10T20:13:45.610Z,4.78
2023-01-10T20:16:13.961Z,3.75
2023-01-10T20:18:43.006Z,3.53
2023-01-10T20:21:11.531Z,3.88
2023-01-10T20:23:40.110Z,4.03
2023-01-10T20:26:14.100Z,3.65
2023-01-10T20:28:42.958Z,3.92
2023-01-10T20:31:13.002Z,3.92
2023-01-10T20:33:40.390Z,3.95
2023-01-10T20:36:10.353Z,3.17
2023-01-10T20:38:38.496Z,3.90
2023-01-10T20:41:17.974Z,4.15
2023-01-10T20:43:45.671Z,4.03
2023-01-10T20:46:15.788Z,4.00
2023-01-10T20:48:43.668Z,3.63
2023-01-10T20:51:16.877Z,3.33
2023-01-10T20:53:44.384Z,2.95
2023-01-10T20:56:14.792Z,3.00
2023-01-10T20:58:42.645Z,4.57
2023-01-10T21:01:12.371Z,3.28
2023-01-10T21:03:43.074Z,3.28
2023-01-10T21:06:10.212Z,3.08
2023-01-10T21:08:37.536Z,3.92
2023-01-10T21:11:06.073Z,3.38
2023-01-10T21:13:35.157Z,2.95
2023-01-10T21:16:02.835Z,2.83
2023-01-10T21:18:37.870Z,2.38
2023-01-10T21:21:04.581Z,2.45
2023-01-10T21:23:31.531Z,3.00
2023-01-10T21:26:04.682Z,2.20
2023-01-10T21:28:42.578Z,1.40
